createdAt,value
2018-05-03T04:09:37.669Z,5
2018-05-03T04:10:03.113Z,10
2018-05-03T04:10:28.578Z,10
2018-05-03T04:10:54.031Z,10
2018-05-03T04:11:19.468Z,10
2018-05-03T04:11:44.971Z,10
2018-05-03T04:12:10.455Z,10
2018-05-03T04:12:35.912Z,10
2018-05-03T04:13:01.354Z,10
2018-05-03T04:13:26.829Z,10
2018-05-03T04:13:52.321Z,10
2018-05-03T04:14:17.765Z,10
2018-05-03T04:14:43.240Z,10
2018-05-03T04:15:08.691Z,15
2018-05-03T04:15:34.174Z,15
2018-05-03T04:15:59.635Z,15
2018-05-03T04:16:25.094Z,15
2018-05-03T04:16:50.569Z,15
2018-05-03T04:17:16.076Z,15
2018-05-03T04:17:41.546Z,15
2018-05-03T04:18:07.001Z,15
2018-05-03T04:18:32.455Z,15
2018-05-03T04:18:57.955Z,15
2018-05-03T04:19:23.383Z,15
2018-05-03T04:19:48.853Z,15
2018-05-03T04:20:14.335Z,20
2018-05-03T04:20:39.824Z,20
2018-05-03T04:21:05.295Z,20
2018-05-03T04:21:30.753Z,20
2018-05-03T04:21:56.205Z,20
2018-05-03T04:22:21.747Z,20
2018-05-03T04:22:47.194Z,20
2018-05-03T04:23:12.643Z,20
2018-05-03T04:23:38.148Z,20
2018-05-03T04:24:03.605Z,20
2018-05-03T04:24:29.070Z,20
2018-05-03T04:24:54.592Z,20
2018-05-03T04:25:20.024Z,25
2018-05-03T04:25:45.468Z,25
2018-05-03T04:26:10.987Z,25
2018-05-03T04:26:36.422Z,25
2018-05-03T04:27:01.892Z,25
2018-05-03T04:27:27.317Z,25
2018-05-03T04:27:52.772Z,25
2018-05-03T04:28:18.293Z,25
2018-05-03T04:28:43.761Z,25
2018-05-03T04:29:09.232Z,30
2018-05-03T04:29:34.701Z,30
2018-05-03T04:30:00.189Z,30
2018-05-03T04:30:25.645Z,30
2018-05-03T04:30:51.103Z,30
2018-05-03T04:31:16.590Z,30
2018-05-03T04:31:42.100Z,30
2018-05-03T04:32:07.653Z,30
2018-05-03T04:32:33.145Z,30
2018-05-03T04:32:58.578Z,35
2018-05-03T04:33:24.050Z,35
2018-05-03T04:33:49.498Z,35
2018-05-03T04:34:14.972Z,35
2018-05-03T04:34:40.451Z,35
2018-05-03T04:35:05.939Z,35
2018-05-03T04:35:31.414Z,35
2018-05-03T04:35:56.845Z,35
2018-05-03T04:36:22.325Z,35
2018-05-03T04:36:47.822Z,40
2018-05-03T04:37:13.289Z,40
2018-05-03T04:37:38.762Z,40
2018-05-03T04:38:04.249Z,40
2018-05-03T04:38:29.750Z,40
2018-05-03T04:39:53.936Z,45
2018-05-03T04:40:19.407Z,45
2018-05-03T04:40:44.902Z,45
2018-05-03T04:41:10.328Z,45
2018-05-03T04:41:35.779Z,45
2018-05-03T04:42:01.279Z,45
2018-05-03T04:42:26.775Z,45
2018-05-03T04:42:52.231Z,50
2018-05-03T04:43:17.716Z,50
2018-05-03T04:43:43.127Z,50
2018-05-03T04:44:08.669Z,50
2018-05-03T04:44:34.524Z,50
2018-05-03T04:45:00.239Z,50
2018-05-03T04:45:25.779Z,50
2018-05-03T04:45:51.199Z,50
2018-05-03T04:46:16.692Z,50
2018-05-03T04:46:42.117Z,55
2018-05-03T04:47:07.602Z,55
2018-05-03T04:47:33.032Z,55
2018-05-03T04:47:58.550Z,55
2018-05-03T04:48:24.078Z,55
2018-05-03T04:48:49.553Z,55
2018-05-03T04:49:14.993Z,60
2018-05-03T04:49:40.474Z,60
2018-05-03T04:50:05.937Z,60
2018-05-03T04:50:31.410Z,60
2018-05-03T04:50:56.874Z,60
2018-05-03T04:51:22.298Z,60
2018-05-03T04:51:47.784Z,60
2018-05-03T04:52:13.285Z,60
2018-05-03T04:52:38.719Z,60
2018-05-03T04:53:04.185Z,60
2018-05-03T04:53:29.668Z,60
2018-05-03T04:53:55.157Z,60
2018-05-03T04:54:20.639Z,60
2018-05-03T04:54:46.115Z,60
2018-05-03T04:55:11.779Z,60
2018-05-03T04:55:37.539Z,60
2018-05-03T04:56:03.148Z,60
2018-05-03T04:56:29.204Z,65
2018-05-03T04:56:54.790Z,65
2018-05-03T04:57:20.554Z,65
2018-05-03T04:57:46.435Z,65
2018-05-03T04:59:07.063Z,70
2018-05-03T04:59:32.206Z,70
2018-05-03T04:59:57.913Z,70
2018-05-03T05:00:23.798Z,70
2018-05-03T05:00:49.475Z,70
2018-05-03T05:01:15.005Z,75
2018-05-03T05:01:40.473Z,75
2018-05-03T05:02:05.982Z,75
2018-05-03T05:02:31.652Z,75
2018-05-03T05:02:57.034Z,75
2018-05-03T05:03:22.548Z,75
2018-05-03T05:03:48.321Z,75
2018-05-03T05:04:13.638Z,80
2018-05-03T05:04:39.189Z,80
2018-05-03T05:05:04.807Z,80
2018-05-03T05:05:30.290Z,80
2018-05-03T05:05:55.811Z,80
2018-05-03T05:06:21.225Z,80
2018-05-03T05:06:46.706Z,85
2018-05-03T05:07:12.154Z,85
2018-05-03T05:07:37.614Z,85
2018-05-03T05:08:03.421Z,85
2018-05-03T05:08:28.957Z,85
2018-05-03T05:08:54.596Z,85
2018-05-03T05:09:19.980Z,90
2018-05-03T05:09:45.490Z,90
2018-05-03T05:10:11.016Z,90
2018-05-03T05:10:36.604Z,90
2018-05-03T05:11:02.097Z,90
2018-05-03T05:11:27.756Z,95
2018-05-03T05:11:53.161Z,95
2018-05-03T05:12:18.770Z,95
2018-05-03T05:12:44.299Z,95
2018-05-03T05:13:09.774Z,100
2018-05-03T05:13:35.317Z,100
2018-05-03T05:14:00.774Z,100
2018-05-03T05:14:26.381Z,100
2018-05-03T05:14:51.905Z,105
2018-05-03T05:15:17.431Z,105
2018-05-03T05:15:42.971Z,105
2018-05-03T05:16:08.521Z,110
2018-05-03T05:16:33.910Z,110
2018-05-03T05:16:59.449Z,110
2018-05-03T05:17:25.043Z,110
2018-05-03T05:17:50.492Z,115
2018-05-03T05:18:15.920Z,115
2018-05-03T05:18:41.447Z,115
2018-05-03T05:19:06.980Z,115
2018-05-03T05:19:32.568Z,115
2018-05-03T05:19:58.020Z,115
2018-05-03T05:20:23.531Z,115
2018-05-03T05:20:48.971Z,115
2018-05-03T05:21:14.498Z,115
2018-05-03T05:21:39.979Z,115
2018-05-03T05:22:05.476Z,115
2018-05-03T05:22:30.954Z,115
2018-05-03T05:22:56.505Z,120
2018-05-03T05:23:22.009Z,120
2018-05-03T05:23:47.520Z,120
2018-05-03T05:24:12.979Z,125
2018-05-03T05:24:38.457Z,125
2018-05-03T05:25:03.940Z,125
2018-05-03T05:25:29.500Z,125
2018-05-03T05:25:55.141Z,125
2018-05-03T05:26:20.750Z,125
2018-05-03T05:26:46.199Z,125
2018-05-03T05:27:11.747Z,125
2018-05-03T05:27:37.230Z,125
2018-05-03T05:28:03.143Z,125
2018-05-03T05:28:28.904Z,130
2018-05-03T05:28:54.473Z,130
2018-05-03T05:29:19.975Z,130
2018-05-03T05:29:45.444Z,130
2018-05-03T05:30:10.924Z,135
2018-05-03T05:30:36.646Z,135
2018-05-03T05:31:02.180Z,135
2018-05-03T05:31:27.769Z,140
2018-05-03T05:31:53.251Z,140
2018-05-03T05:32:18.703Z,140
2018-05-03T05:32:44.207Z,145
2018-05-03T05:33:09.634Z,145
2018-05-03T05:33:35.080Z,155
2018-05-03T05:34:00.548Z,150
2018-05-03T05:34:25.998Z,145
2018-05-03T05:34:51.451Z,150
2018-05-03T05:35:16.974Z,145
2018-05-03T05:35:42.488Z,145
2018-05-03T05:36:08.006Z,150
2018-05-03T05:36:33.524Z,150
2018-05-03T05:36:58.952Z,155
2018-05-03T05:37:24.447Z,155
2018-05-03T05:37:49.986Z,155
2018-05-03T05:38:15.381Z,160
2018-05-03T05:38:40.896Z,155
2018-05-03T05:39:06.322Z,160
2018-05-03T05:39:31.789Z,160
2018-05-03T05:39:57.287Z,160
2018-05-03T05:40:22.724Z,160
2018-05-03T05:40:48.188Z,160
2018-05-03T05:41:13.644Z,160
2018-05-03T05:41:39.125Z,165
2018-05-03T05:42:04.584Z,165
2018-05-03T05:42:30.048Z,165
2018-05-03T05:42:55.515Z,165
2018-05-03T05:43:21.012Z,165
2018-05-03T05:43:46.477Z,165
2018-05-03T05:44:11.939Z,165
2018-05-03T05:44:37.403Z,165
2018-05-03T05:45:02.869Z,170
2018-05-03T05:45:28.318Z,170
2018-05-03T05:45:53.793Z,170
2018-05-03T05:46:19.259Z,175
2018-05-03T05:46:44.746Z,175
2018-05-03T05:47:10.270Z,180
2018-05-03T05:47:35.727Z,180
2018-05-03T05:48:01.236Z,185
2018-05-03T05:48:26.771Z,185
2018-05-03T05:48:52.293Z,180
2018-05-03T05:49:17.778Z,180
2018-05-03T05:49:43.263Z,180
2018-05-03T05:50:08.770Z,185
2018-05-03T05:50:34.276Z,185
2018-05-03T05:50:59.776Z,190
2018-05-03T05:51:25.253Z,190
2018-05-03T05:51:51.122Z,185
2018-05-03T05:52:16.574Z,185
2018-05-03T05:52:42.066Z,190
2018-05-03T05:53:07.508Z,190
2018-05-03T05:53:33.016Z,190
2018-05-03T05:53:58.794Z,195
2018-05-03T05:54:24.328Z,230
2018-05-03T05:54:49.840Z,205
2018-05-03T05:55:15.373Z,210
2018-05-03T05:55:40.823Z,210
2018-05-03T05:56:06.398Z,210
2018-05-03T05:56:31.884Z,210
2018-05-03T05:56:57.350Z,210
2018-05-03T05:57:23.057Z,210
2018-05-03T05:57:48.528Z,210
2018-05-03T05:58:14.042Z,210
2018-05-03T05:58:39.594Z,215
2018-05-03T05:59:05.082Z,220
2018-05-03T05:59:30.591Z,220
2018-05-03T05:59:56.083Z,220
2018-05-03T06:00:21.592Z,230
2018-05-03T06:00:47.048Z,240
2018-05-03T06:01:12.566Z,245
2018-05-03T06:01:38.024Z,255
2018-05-03T06:02:03.572Z,375
2018-05-03T06:02:29.013Z,360
2018-05-03T06:02:54.532Z,340
2018-05-03T06:03:20.008Z,285
2018-05-03T06:03:45.459Z,245
2018-05-03T06:04:10.997Z,260
2018-05-03T06:04:36.439Z,260
2018-05-03T06:05:01.982Z,250
2018-05-03T06:05:27.493Z,245
2018-05-03T06:05:52.976Z,240
2018-05-03T06:06:18.465Z,235
2018-05-03T06:06:43.940Z,240
2018-05-03T06:07:09.441Z,240
2018-05-03T06:07:35.004Z,240
2018-05-03T06:08:00.429Z,240
2018-05-03T06:08:26.060Z,240
2018-05-03T06:08:51.467Z,245
2018-05-03T06:09:16.932Z,255
2018-05-03T06:09:42.408Z,265
2018-05-03T06:10:07.850Z,265
2018-05-03T06:10:33.323Z,275
2018-05-03T06:10:58.797Z,275
2018-05-03T06:11:24.306Z,295
2018-05-03T06:11:49.783Z,355
2018-05-03T06:12:15.310Z,335
2018-05-03T06:12:40.804Z,320
2018-05-03T06:13:06.301Z,320
2018-05-03T06:13:31.776Z,315
2018-05-03T06:13:57.251Z,295
2018-05-03T06:14:22.752Z,305
2018-05-03T06:14:48.247Z,270
2018-05-03T06:15:13.748Z,275
2018-05-03T06:15:39.191Z,275
2018-05-03T06:16:04.725Z,305
2018-05-03T06:16:30.183Z,360
2018-05-03T06:16:55.687Z,370
2018-05-03T06:17:21.118Z,405
2018-05-03T06:17:46.661Z,410
2018-05-03T06:18:12.189Z,410
2018-05-03T06:18:37.607Z,470
2018-05-03T06:19:03.180Z,630
2018-05-03T06:19:28.616Z,850
2018-05-03T06:19:54.071Z,795
2018-05-03T06:20:19.573Z,755
2018-05-03T06:20:45.053Z,505
2018-05-03T06:21:10.571Z,490
2018-05-03T06:21:36.058Z,385
2018-05-03T06:22:01.550Z,355
2018-05-03T06:22:27.047Z,335
2018-05-03T06:22:52.527Z,390
2018-05-03T06:24:11.443Z,450
2018-05-03T06:24:36.935Z,695
2018-05-03T06:25:02.385Z,685
2018-05-03T06:25:27.890Z,570
2018-05-03T06:25:53.424Z,545
2018-05-03T06:26:18.860Z,525
2018-05-03T06:26:44.345Z,480
2018-05-03T06:27:09.894Z,380
2018-05-03T06:27:35.402Z,350
2018-05-03T06:28:00.856Z,360
2018-05-03T06:28:26.321Z,350
2018-05-03T06:28:51.817Z,335
2018-05-03T06:29:17.339Z,330
2018-05-03T06:29:42.829Z,320
2018-05-03T06:30:08.290Z,295
2018-05-03T06:30:33.767Z,290
2018-05-03T06:30:59.262Z,275
2018-05-03T06:31:24.731Z,270
2018-05-03T06:31:50.210Z,275
2018-05-03T06:32:15.708Z,280
2018-05-03T06:32:41.260Z,275
2018-05-03T06:33:06.776Z,280
2018-05-03T06:33:32.275Z,295
2018-05-03T06:33:57.845Z,290
2018-05-03T06:34:23.335Z,275
2018-05-03T06:34:48.806Z,270
2018-05-03T06:35:14.328Z,275
2018-05-03T06:35:39.830Z,280
2018-05-03T06:36:05.292Z,280
2018-05-03T06:36:30.776Z,295
2018-05-03T06:36:56.329Z,300
2018-05-03T06:37:21.846Z,305
2018-05-03T06:37:47.327Z,305
2018-05-03T06:38:12.820Z,325
2018-05-03T06:38:38.267Z,330
2018-05-03T06:39:03.764Z,325
2018-05-03T06:39:29.250Z,330
2018-05-03T06:39:54.777Z,305
2018-05-03T06:40:20.247Z,290
2018-05-03T06:40:45.757Z,280
2018-05-03T06:41:11.222Z,280
2018-05-03T06:41:36.699Z,295
2018-05-03T06:42:02.241Z,295
2018-05-03T06:42:27.714Z,285
2018-05-03T06:42:53.214Z,290
2018-05-03T06:43:18.717Z,290
2018-05-03T06:43:44.182Z,305
2018-05-03T06:44:09.606Z,310
2018-05-03T06:44:35.089Z,315
2018-05-03T06:45:00.592Z,305
2018-05-03T06:45:26.147Z,300
2018-05-03T06:45:51.578Z,320
2018-05-03T06:46:17.040Z,310
2018-05-03T06:46:42.512Z,305
2018-05-03T06:47:08.004Z,335
2018-05-03T06:47:33.479Z,325
2018-05-03T06:47:58.904Z,320
2018-05-03T06:48:24.402Z,300
2018-05-03T06:48:49.852Z,305
2018-05-03T06:49:15.397Z,305
2018-05-03T06:49:40.848Z,310
2018-05-03T06:50:06.431Z,320
2018-05-03T06:50:31.864Z,340
2018-05-03T06:50:57.324Z,375
2018-05-03T06:51:22.864Z,380
2018-05-03T06:51:48.327Z,385
2018-05-03T06:52:13.822Z,390
2018-05-03T06:52:39.258Z,370
2018-05-03T06:53:04.812Z,405
2018-05-03T06:53:30.317Z,425
2018-05-03T06:53:55.768Z,420
2018-05-03T06:54:21.360Z,405
2018-05-03T06:54:46.808Z,420
2018-05-03T06:55:12.343Z,415
2018-05-03T06:55:37.747Z,615
2018-05-03T06:56:03.229Z,630
2018-05-03T06:56:28.720Z,575
2018-05-03T06:56:54.281Z,540
2018-05-03T06:57:19.749Z,475
2018-05-03T06:57:45.306Z,460
2018-05-03T06:58:10.803Z,430
2018-05-03T06:58:36.387Z,385
2018-05-03T06:59:01.833Z,375
2018-05-03T06:59:27.341Z,375
2018-05-03T06:59:52.861Z,425
2018-05-03T07:00:18.423Z,550
2018-05-03T07:00:43.951Z,465
2018-05-03T07:01:09.460Z,510
2018-05-03T07:01:34.933Z,525
2018-05-03T07:02:00.436Z,535
2018-05-03T07:02:25.949Z,650
2018-05-03T07:02:51.481Z,845
2018-05-03T07:03:16.981Z,950
2018-05-03T07:03:42.486Z,950
2018-05-03T07:04:08.049Z,780
2018-05-03T07:04:33.463Z,600
2018-05-03T07:04:58.945Z,760
2018-05-03T07:05:24.484Z,790
2018-05-03T07:05:49.997Z,860
2018-05-03T07:06:15.548Z,1035
2018-05-03T07:06:41.025Z,1040
2018-05-03T07:07:06.514Z,855
2018-05-03T07:07:32.013Z,1180
2018-05-03T07:07:57.561Z,920
2018-05-03T07:08:23.137Z,935
2018-05-03T07:08:48.715Z,1180
2018-05-03T07:09:14.240Z,1150
2018-05-03T07:09:39.799Z,1005
2018-05-03T07:10:05.223Z,1075
2018-05-03T07:10:30.737Z,1075
2018-05-03T07:10:56.265Z,1005
2018-05-03T07:11:21.751Z,1065
2018-05-03T07:11:47.220Z,905
2018-05-03T07:12:12.701Z,835
2018-05-03T07:12:38.164Z,710
2018-05-03T07:13:03.694Z,615
2018-05-03T07:13:29.133Z,515
2018-05-03T07:13:54.698Z,390
2018-05-03T07:14:20.102Z,340
2018-05-03T07:14:45.630Z,350
2018-05-03T07:15:11.114Z,365
2018-05-03T07:15:36.549Z,410
2018-05-03T07:16:02.058Z,405
2018-05-03T07:16:27.550Z,375
2018-05-03T07:16:53.034Z,360
2018-05-03T07:17:18.555Z,390
2018-05-03T07:17:44.045Z,375
2018-05-03T07:18:09.623Z,405
2018-05-03T07:18:35.040Z,400
2018-05-03T07:19:00.569Z,395
2018-05-03T07:19:26.081Z,395
2018-05-03T07:19:51.603Z,385
2018-05-03T07:20:17.057Z,380
2018-05-03T07:20:42.559Z,405
2018-05-03T07:21:08.071Z,400
2018-05-03T07:21:33.546Z,410
2018-05-03T07:21:59.073Z,410
2018-05-03T07:22:24.563Z,405
2018-05-03T07:22:50.063Z,385
2018-05-03T07:23:15.485Z,395
2018-05-03T07:23:40.981Z,385
2018-05-03T07:24:06.505Z,400
2018-05-03T07:24:31.901Z,410
2018-05-03T07:24:57.369Z,380
2018-05-03T07:25:22.891Z,375
2018-05-03T07:25:48.422Z,390
2018-05-03T07:26:13.918Z,400
2018-05-03T07:26:39.409Z,420
2018-05-03T07:27:04.917Z,540
2018-05-03T07:27:30.457Z,745
2018-05-03T07:27:55.904Z,940
2018-05-03T07:28:21.409Z,475
2018-05-03T07:28:46.882Z,590
2018-05-03T07:29:12.359Z,680
2018-05-03T07:29:37.815Z,935
2018-05-03T07:30:46.527Z,670
2018-05-03T07:31:12.009Z,555
2018-05-03T07:31:37.484Z,450
2018-05-03T07:32:03.021Z,410
2018-05-03T07:32:28.456Z,380
2018-05-03T07:32:53.945Z,400
2018-05-03T07:33:19.406Z,380
2018-05-03T07:33:44.900Z,365
2018-05-03T07:34:10.456Z,355
2018-05-03T07:34:35.900Z,340
2018-05-03T07:35:01.376Z,340
2018-05-03T07:35:26.878Z,325
2018-05-03T07:35:52.393Z,310
2018-05-03T07:36:17.908Z,320
2018-05-03T07:36:43.358Z,345
2018-05-03T07:37:08.833Z,350
2018-05-03T07:37:34.326Z,365
2018-05-03T07:37:59.837Z,360
2018-05-03T07:38:25.269Z,340
2018-05-03T07:38:50.776Z,345
2018-05-03T07:39:16.297Z,325
2018-05-03T07:39:41.729Z,310
2018-05-03T07:40:07.239Z,295
2018-05-03T07:40:32.731Z,300
2018-05-03T07:40:58.282Z,290
2018-05-03T07:41:23.728Z,295
2018-05-03T07:41:49.214Z,280
2018-05-03T07:42:14.726Z,270
2018-05-03T07:42:40.200Z,270
2018-05-03T07:43:05.692Z,265
2018-05-03T07:43:31.161Z,265
2018-05-03T07:43:56.690Z,270
2018-05-03T07:44:22.185Z,285
2018-05-03T07:44:47.672Z,280
2018-05-03T07:45:13.170Z,275
2018-05-03T07:45:38.636Z,270
2018-05-03T07:46:04.079Z,270
2018-05-03T07:46:29.581Z,275
2018-05-03T07:46:55.081Z,290
2018-05-03T07:47:20.569Z,295
2018-05-03T07:47:46.052Z,300
2018-05-03T07:48:11.555Z,290
2018-05-03T07:48:37.160Z,295
2018-05-03T07:49:02.564Z,295
2018-05-03T07:49:28.096Z,285
2018-05-03T07:49:53.568Z,280
2018-05-03T07:50:19.010Z,285
2018-05-03T07:50:44.539Z,295
2018-05-03T07:51:10.021Z,300
2018-05-03T07:51:35.516Z,290
2018-05-03T07:52:01.018Z,285
2018-05-03T07:52:26.461Z,295
2018-05-03T07:52:51.974Z,295
2018-05-03T07:53:17.453Z,300
2018-05-03T07:53:42.977Z,300
2018-05-03T07:54:08.435Z,305
2018-05-03T07:54:33.929Z,300
2018-05-03T07:54:59.429Z,305
2018-05-03T07:55:24.894Z,300
2018-05-03T07:55:50.364Z,305
2018-05-03T07:56:15.856Z,325
2018-05-03T07:56:41.356Z,320
2018-05-03T07:57:06.826Z,315
2018-05-03T07:57:32.315Z,305
2018-05-03T07:57:57.841Z,295
2018-05-03T07:58:23.380Z,285
2018-05-03T07:58:48.869Z,270
2018-05-03T07:59:14.332Z,260
2018-05-03T07:59:39.808Z,255
2018-05-03T08:00:05.284Z,250
2018-05-03T08:00:30.782Z,250
2018-05-03T08:00:56.251Z,245
2018-05-03T08:01:21.729Z,245
2018-05-03T08:01:47.251Z,240
2018-05-03T08:02:12.793Z,235
2018-05-03T08:02:38.247Z,240
2018-05-03T08:03:03.733Z,230
2018-05-03T08:03:29.238Z,225
2018-05-03T08:03:54.729Z,225
2018-05-03T08:04:20.255Z,235
2018-05-03T08:04:45.847Z,240
2018-05-03T08:05:11.244Z,240
2018-05-03T08:05:36.712Z,225
2018-05-03T08:06:02.186Z,220
2018-05-03T08:06:27.695Z,215
2018-05-03T08:06:53.169Z,215
2018-05-03T08:07:18.641Z,215
2018-05-03T08:07:44.153Z,215
2018-05-03T08:08:09.632Z,210
2018-05-03T08:08:35.152Z,210
2018-05-03T08:09:00.623Z,210
2018-05-03T08:09:26.152Z,205
2018-05-03T08:09:51.602Z,205
2018-05-03T08:10:17.091Z,210
2018-05-03T08:10:42.579Z,215
2018-05-03T08:11:08.100Z,215
2018-05-03T08:11:33.595Z,210
2018-05-03T08:11:59.124Z,210
2018-05-03T08:12:24.609Z,205
2018-05-03T08:12:50.097Z,210
2018-05-03T08:13:15.592Z,215
2018-05-03T08:13:41.095Z,220
2018-05-03T08:14:06.564Z,220
2018-05-03T08:14:32.029Z,215
2018-05-03T08:14:57.527Z,220
2018-05-03T08:15:23.008Z,220
2018-05-03T08:15:48.508Z,225
2018-05-03T08:16:13.973Z,220
2018-05-03T08:16:39.494Z,225
2018-05-03T08:17:04.969Z,230
2018-05-03T08:17:30.425Z,230
2018-05-03T08:17:55.960Z,245
2018-05-03T08:18:21.381Z,255
2018-05-03T08:18:46.896Z,255
2018-05-03T08:19:12.372Z,250
2018-05-03T08:19:37.900Z,245
2018-05-03T08:20:03.392Z,235
2018-05-03T08:20:28.897Z,235
2018-05-03T08:20:54.453Z,235
2018-05-03T08:21:19.919Z,230
2018-05-03T08:21:45.395Z,235
2018-05-03T08:22:10.871Z,240
2018-05-03T08:22:36.373Z,235
2018-05-03T08:23:01.864Z,225
2018-05-03T08:23:27.381Z,220
2018-05-03T08:23:52.962Z,235
2018-05-03T08:24:18.449Z,245
2018-05-03T08:24:43.904Z,245
2018-05-03T08:25:09.414Z,250
2018-05-03T08:25:34.909Z,240
2018-05-03T08:26:00.410Z,230
2018-05-03T08:26:25.854Z,230
2018-05-03T08:26:51.364Z,225
2018-05-03T08:27:16.878Z,235
2018-05-03T08:27:42.341Z,250
2018-05-03T08:28:07.796Z,250
2018-05-03T08:28:33.353Z,250
2018-05-03T08:28:58.786Z,245
2018-05-03T08:29:24.259Z,240
2018-05-03T08:29:49.776Z,245
2018-05-03T08:30:15.278Z,245
2018-05-03T08:30:40.739Z,225
2018-05-03T08:31:06.307Z,225
2018-05-03T08:31:31.781Z,245
2018-05-03T08:31:57.243Z,245
2018-05-03T08:32:22.785Z,235
2018-05-03T08:32:48.231Z,230
2018-05-03T08:33:13.749Z,215
2018-05-03T08:33:39.191Z,205
2018-05-03T08:34:04.658Z,200
2018-05-03T08:34:30.143Z,205
2018-05-03T08:34:55.599Z,195
2018-05-03T08:35:21.107Z,200
2018-05-03T08:35:46.645Z,200
2018-05-03T08:36:12.126Z,205
2018-05-03T08:36:37.611Z,210
2018-05-03T08:37:03.124Z,210
2018-05-03T08:37:28.583Z,205
2018-05-03T08:37:54.022Z,225
2018-05-03T08:38:19.484Z,225
2018-05-03T08:38:44.954Z,235
2018-05-03T08:39:10.505Z,235
2018-05-03T08:39:36.006Z,235
2018-05-03T08:40:01.464Z,230
2018-05-03T08:40:26.950Z,220
2018-05-03T08:40:52.437Z,220
2018-05-03T08:41:17.939Z,225
2018-05-03T08:41:43.456Z,235
2018-05-03T08:42:08.873Z,235
2018-05-03T08:42:34.384Z,230
2018-05-03T08:42:59.910Z,235
2018-05-03T08:43:25.407Z,240
2018-05-03T08:43:50.896Z,230
2018-05-03T08:44:16.414Z,220
2018-05-03T08:44:41.900Z,225
2018-05-03T08:45:07.417Z,220
2018-05-03T08:45:32.905Z,220
2018-05-03T08:45:58.391Z,225
2018-05-03T08:46:23.884Z,245
2018-05-03T08:46:49.345Z,250
2018-05-03T08:47:14.831Z,260
2018-05-03T08:47:40.400Z,265
2018-05-03T08:48:05.848Z,265
2018-05-03T08:48:31.343Z,270
2018-05-03T08:48:56.820Z,280
2018-05-03T08:49:22.298Z,270
2018-05-03T08:49:47.765Z,250
2018-05-03T08:50:13.234Z,235
2018-05-03T08:50:38.690Z,230
2018-05-03T08:51:04.136Z,225
2018-05-03T08:51:29.600Z,225
2018-05-03T08:51:55.101Z,235
2018-05-03T08:52:20.560Z,245
2018-05-03T08:52:46.017Z,240
2018-05-03T08:53:11.503Z,235
2018-05-03T08:53:36.971Z,225
2018-05-03T08:54:02.420Z,225
2018-05-03T08:54:27.901Z,230
2018-05-03T08:54:53.366Z,240
2018-05-03T08:55:18.840Z,255
2018-05-03T08:55:44.320Z,260
2018-05-03T08:56:09.764Z,260
2018-05-03T08:56:35.221Z,260
2018-05-03T08:57:00.690Z,260
2018-05-03T08:57:26.174Z,275
2018-05-03T08:57:51.629Z,275
2018-05-03T08:58:17.088Z,275
2018-05-03T08:58:42.553Z,270
2018-05-03T08:59:07.984Z,270
2018-05-03T08:59:33.463Z,250
2018-05-03T08:59:58.917Z,240
2018-05-03T09:00:24.401Z,220
2018-05-03T09:00:50.607Z,210
2018-05-03T09:01:16.093Z,210
2018-05-03T09:01:41.946Z,210
2018-05-03T09:02:07.359Z,215
2018-05-03T09:02:32.814Z,215
2018-05-03T09:02:58.338Z,215
2018-05-03T09:03:23.801Z,215
2018-05-03T09:03:49.224Z,215
2018-05-03T09:04:14.696Z,220
2018-05-03T09:04:40.173Z,230
2018-05-03T09:05:05.642Z,255
2018-05-03T09:05:31.100Z,250
2018-05-03T09:05:56.553Z,255
2018-05-03T09:06:22.038Z,260
2018-05-03T09:06:47.506Z,260
2018-05-03T09:07:12.983Z,255
2018-05-03T09:07:38.576Z,250
2018-05-03T09:08:03.945Z,235
2018-05-03T09:08:29.429Z,230
2018-05-03T09:08:54.901Z,235
2018-05-03T09:09:20.363Z,245
2018-05-03T09:09:45.855Z,235
2018-05-03T09:10:11.325Z,235
2018-05-03T09:10:36.799Z,245
2018-05-03T09:11:02.253Z,250
2018-05-03T09:11:27.721Z,250
2018-05-03T09:11:53.226Z,255
2018-05-03T09:12:18.691Z,255
2018-05-03T09:12:44.179Z,250
2018-05-03T09:13:09.609Z,250
2018-05-03T09:13:35.101Z,255
2018-05-03T09:14:00.534Z,265
2018-05-03T09:14:25.999Z,260
2018-05-03T09:14:51.486Z,255
2018-05-03T09:15:16.914Z,250
2018-05-03T09:15:42.398Z,255
2018-05-03T09:16:07.871Z,255
2018-05-03T09:16:33.330Z,255
2018-05-03T09:16:58.807Z,260
2018-05-03T09:17:24.260Z,265
2018-05-03T09:17:49.696Z,265
2018-05-03T09:18:15.197Z,255
2018-05-03T09:18:40.663Z,260
2018-05-03T09:19:06.133Z,270
2018-05-03T09:19:31.599Z,285
2018-05-03T09:19:57.108Z,270
2018-05-03T09:20:22.548Z,260
2018-05-03T09:20:48.002Z,250
2018-05-03T09:21:13.473Z,255
2018-05-03T09:21:38.948Z,255
2018-05-03T09:22:04.413Z,240
2018-05-03T09:22:29.901Z,230
2018-05-03T09:22:55.376Z,235
2018-05-03T09:23:20.867Z,270
2018-05-03T09:23:46.353Z,270
2018-05-03T09:24:11.814Z,260
2018-05-03T09:24:37.290Z,250
2018-05-03T09:25:02.787Z,240
2018-05-03T09:25:28.233Z,235
2018-05-03T09:25:53.724Z,230
2018-05-03T09:26:19.175Z,240
2018-05-03T09:26:44.635Z,245
2018-05-03T09:27:10.133Z,235
2018-05-03T09:27:35.588Z,245
2018-05-03T09:28:01.052Z,255
2018-05-03T09:28:26.493Z,260
2018-05-03T09:28:51.951Z,290
2018-05-03T09:29:17.468Z,315
2018-05-03T09:29:42.966Z,345
2018-05-03T09:30:08.441Z,360
2018-05-03T09:30:33.911Z,365
2018-05-03T09:30:59.398Z,365
2018-05-03T09:31:24.888Z,360
2018-05-03T09:31:50.422Z,350
2018-05-03T09:32:15.930Z,335
2018-05-03T09:32:41.387Z,325
2018-05-03T09:33:06.851Z,325
2018-05-03T09:33:32.341Z,325
2018-05-03T09:33:57.816Z,335
2018-05-03T09:34:23.283Z,340
2018-05-03T09:34:48.738Z,350
2018-05-03T09:35:14.244Z,345
2018-05-03T09:35:39.775Z,335
2018-05-03T09:36:05.333Z,345
2018-05-03T09:36:30.754Z,335
2018-05-03T09:36:56.295Z,330
2018-05-03T09:37:21.794Z,335
2018-05-03T09:37:47.330Z,350
2018-05-03T09:38:12.803Z,360
2018-05-03T09:38:38.336Z,355
2018-05-03T09:39:03.807Z,340
2018-05-03T09:39:29.293Z,340
2018-05-03T09:39:54.982Z,340
2018-05-03T09:40:20.478Z,340
2018-05-03T09:40:46.006Z,330
2018-05-03T09:41:11.540Z,310
2018-05-03T09:41:37.086Z,300
2018-05-03T09:42:02.590Z,315
2018-05-03T09:42:28.100Z,330
2018-05-03T09:42:53.604Z,320
2018-05-03T09:43:19.098Z,305
2018-05-03T09:43:44.601Z,290
2018-05-03T09:44:10.174Z,280
2018-05-03T09:44:35.652Z,275
2018-05-03T09:45:01.134Z,275
2018-05-03T09:45:26.662Z,300
2018-05-03T09:45:52.170Z,315
2018-05-03T09:46:17.737Z,315
2018-05-03T09:46:43.169Z,310
2018-05-03T09:47:08.684Z,300
2018-05-03T09:47:34.163Z,290
2018-05-03T09:47:59.646Z,290
2018-05-03T09:48:25.154Z,285
2018-05-03T09:48:50.669Z,285
2018-05-03T09:49:16.193Z,290
2018-05-03T09:49:41.697Z,285
2018-05-03T09:50:07.237Z,285
2018-05-03T09:50:32.700Z,290
2018-05-03T09:50:58.212Z,285
2018-05-03T09:51:23.712Z,285
2018-05-03T09:51:49.152Z,285
2018-05-03T09:52:14.663Z,275
2018-05-03T09:52:40.208Z,270
2018-05-03T09:53:05.687Z,270
2018-05-03T09:53:31.162Z,285
2018-05-03T09:53:56.705Z,305
2018-05-03T09:54:22.206Z,320
2018-05-03T09:54:47.752Z,320
2018-05-03T09:55:13.224Z,325
2018-05-03T09:55:38.738Z,330
2018-05-03T09:56:04.224Z,335
2018-05-03T09:56:29.743Z,330
2018-05-03T09:56:55.224Z,315
2018-05-03T09:57:20.737Z,320
2018-05-03T09:57:46.290Z,315
2018-05-03T09:58:11.746Z,305
2018-05-03T09:58:37.268Z,295
2018-05-03T09:59:02.849Z,285
2018-05-03T09:59:28.454Z,270
2018-05-03T09:59:53.969Z,270
2018-05-03T10:00:19.440Z,280
2018-05-03T10:00:44.989Z,290
2018-05-03T10:01:10.628Z,285
2018-05-03T10:01:36.139Z,275
2018-05-03T10:02:01.703Z,255
2018-05-03T10:02:27.196Z,235
2018-05-03T10:02:52.711Z,230
2018-05-03T10:03:18.205Z,230
2018-05-03T10:03:43.697Z,225
2018-05-03T10:04:09.193Z,225
2018-05-03T10:04:34.733Z,230
2018-05-03T10:05:00.194Z,230
2018-05-03T10:05:25.695Z,235
2018-05-03T10:05:51.228Z,230